createdAt,value
2023-03-25T00:00:17.614Z,14.25
2023-03-25T00:04:21.298Z,14.25
2023-03-25T00:08:27.161Z,14.20
2023-03-25T00:12:31.110Z,14.18
2023-03-25T00:16:34.747Z,14.15
2023-03-25T00:20:40.964Z,14.14
2023-03-25T00:24:45.987Z,14.05
2023-03-25T00:28:48.924Z,14.12
2023-03-25T00:32:53.379Z,14.15
2023-03-25T00:36:57.151Z,14.16
2023-03-25T00:41:10.701Z,14.14
2023-03-25T00:45:13.825Z,14.14
2023-03-25T00:49:17.364Z,14.12
2023-03-25T00:53:22.155Z,14.07
2023-03-25T00:57:26.625Z,14.08
2023-03-25T01:01:31.371Z,14.01
2023-03-25T01:05:34.683Z,13.97
2023-03-25T01:09:38.149Z,13.93
2023-03-25T01:13:42.548Z,13.89
2023-03-25T01:17:45.989Z,13.82
2023-03-25T01:21:49.927Z,13.75
2023-03-25T01:25:53.484Z,13.78
2023-03-25T01:29:58.374Z,13.75
2023-03-25T01:34:01.480Z,13.70
2023-03-25T01:38:05.151Z,13.68
2023-03-25T01:42:08.666Z,13.65
2023-03-25T01:46:15.841Z,13.67
2023-03-25T01:50:19.507Z,13.62
2023-03-25T01:54:23.219Z,13.57
2023-03-25T01:58:29.688Z,13.53
2023-03-25T02:02:36.821Z,13.47
2023-03-25T02:06:44.127Z,13.43
2023-03-25T02:10:48.849Z,13.31
2023-03-25T02:14:51.877Z,13.31
2023-03-25T02:19:11.654Z,13.28
2023-03-25T02:23:42.668Z,13.24
2023-03-25T02:27:56.371Z,13.22
2023-03-25T02:32:17.821Z,13.17
2023-03-25T02:37:04.886Z,13.17
2023-03-25T02:41:15.480Z,13.21
2023-03-25T02:45:24.061Z,13.23
2023-03-25T02:49:31.769Z,13.25
2023-03-25T02:53:37.557Z,13.32
2023-03-25T02:57:46.495Z,13.34
2023-03-25T03:01:51.111Z,13.35
2023-03-25T03:05:58.187Z,13.39
2023-03-25T03:10:08.931Z,13.44
2023-03-25T03:14:32.424Z,13.44
2023-03-25T03:18:46.465Z,13.43
2023-03-25T03:22:54.800Z,13.39
2023-03-25T03:27:04.043Z,13.27
2023-03-25T03:31:48.303Z,13.25
2023-03-25T03:35:50.506Z,13.22
2023-03-25T03:39:57.051Z,13.15
2023-03-25T03:44:04.121Z,13.10
2023-03-25T03:48:14.124Z,13.05
2023-03-25T03:52:22.493Z,12.99
2023-03-25T03:56:32.644Z,12.96
2023-03-25T04:00:42.024Z,12.96
2023-03-25T04:04:46.742Z,12.96
2023-03-25T04:08:59.254Z,12.98
2023-03-25T04:13:06.094Z,12.98
2023-03-25T04:17:09.178Z,12.95
2023-03-25T04:21:15.670Z,12.91
2023-03-25T04:25:21.862Z,12.84
2023-03-25T04:29:26.215Z,12.79
2023-03-25T04:33:32.295Z,12.79
2023-03-25T04:37:37.565Z,12.79
2023-03-25T04:41:40.858Z,12.84
2023-03-25T04:45:50.160Z,12.83
2023-03-25T04:49:53.291Z,12.80
2023-03-25T04:53:58.082Z,12.75
2023-03-25T04:58:01.214Z,12.70
2023-03-25T05:02:08.476Z,12.61
2023-03-25T05:06:11.439Z,12.52
2023-03-25T05:10:17.238Z,12.51
2023-03-25T05:14:22.483Z,12.52
2023-03-25T05:18:25.728Z,12.56
2023-03-25T05:22:28.603Z,12.68
2023-03-25T05:26:36.086Z,12.79
2023-03-25T05:30:41.806Z,12.87
2023-03-25T05:34:47.521Z,13.01
2023-03-25T05:38:50.612Z,13.07
2023-03-25T05:42:56.707Z,13.08
2023-03-25T05:47:01.380Z,13.17
2023-03-25T05:51:08.281Z,13.22
2023-03-25T05:55:15.850Z,13.27
2023-03-25T05:59:20.842Z,13.30
2023-03-25T06:03:26.416Z,13.36
2023-03-25T06:07:30.620Z,13.35
2023-03-25T06:11:46.726Z,13.32
2023-03-25T06:15:56.752Z,13.33
2023-03-25T06:20:00.871Z,13.34
2023-03-25T06:24:04.396Z,13.35
2023-03-25T06:28:07.513Z,13.38
2023-03-25T06:32:15.272Z,13.44
2023-03-25T06:36:20.390Z,13.50
2023-03-25T06:40:24.609Z,13.55
2023-03-25T06:44:27.972Z,13.56
2023-03-25T06:48:32.700Z,13.61
2023-03-25T06:52:36.099Z,13.66
2023-03-25T06:56:39.896Z,13.72
2023-03-25T07:00:43.203Z,13.77
2023-03-25T07:04:48.078Z,13.87
2023-03-25T07:08:51.660Z,14.00
2023-03-25T07:12:55.004Z,14.15
2023-03-25T07:16:57.879Z,14.33
2023-03-25T07:21:02.670Z,14.47
2023-03-25T07:25:06.191Z,14.56
2023-03-25T07:29:09.558Z,14.65
2023-03-25T07:33:12.685Z,14.80
2023-03-25T07:37:17.925Z,14.84
2023-03-25T07:41:20.918Z,14.78
2023-03-25T07:45:24.432Z,14.77
2023-03-25T07:49:27.684Z,14.69
2023-03-25T07:53:33.392Z,14.73
2023-03-25T07:57:36.299Z,14.70
2023-03-25T08:01:39.799Z,14.70
2023-03-25T08:05:46.787Z,14.69
2023-03-25T08:09:52.437Z,14.64
2023-03-25T08:13:55.330Z,14.70
2023-03-25T08:17:58.956Z,14.62
2023-03-25T08:22:01.929Z,14.65
2023-03-25T08:26:07.388Z,14.73
2023-03-25T08:30:12.031Z,14.83
2023-03-25T08:34:15.996Z,15.08
2023-03-25T08:38:19.042Z,15.38
2023-03-25T08:42:23.829Z,15.59
2023-03-25T08:46:27.077Z,15.79
2023-03-25T08:50:31.942Z,15.84
2023-03-25T08:54:34.938Z,15.87
2023-03-25T08:58:39.760Z,15.84
2023-03-25T09:02:43.555Z,15.88
2023-03-25T09:07:10.294Z,16.01
2023-03-25T09:11:10.075Z,16.18
2023-03-25T09:15:15.144Z,16.28
2023-03-25T09:19:18.122Z,16.27
2023-03-25T09:23:21.649Z,16.35
2023-03-25T09:27:24.563Z,16.56
2023-03-25T09:31:29.275Z,16.79
2023-03-25T09:35:33.552Z,16.90
2023-03-25T09:39:37.207Z,16.94
2023-03-25T09:43:53.043Z,16.93
2023-03-25T09:48:03.424Z,17.07
2023-03-25T09:52:09.500Z,17.32
2023-03-25T09:56:17.936Z,17.66
2023-03-25T10:00:25.292Z,18.01
2023-03-25T10:04:54.936Z,18.42
2023-03-25T10:09:36.258Z,18.71
2023-03-25T10:13:49.167Z,18.92
2023-03-25T10:17:58.882Z,19.16
2023-03-25T10:22:06.327Z,19.41
2023-03-25T10:26:14.388Z,19.52
2023-03-25T10:30:23.620Z,19.57
2023-03-25T10:34:36.146Z,19.64
2023-03-25T10:38:43.201Z,19.64
2023-03-25T10:42:55.725Z,19.62
2023-03-25T10:47:06.019Z,19.56
2023-03-25T10:51:12.281Z,19.33
2023-03-25T10:55:25.714Z,18.98
2023-03-25T10:59:36.426Z,18.64
2023-03-25T11:03:43.630Z,18.43
2023-03-25T11:07:52.010Z,18.38
2023-03-25T11:11:57.280Z,18.51
2023-03-25T11:16:04.639Z,18.75
2023-03-25T11:20:18.185Z,19.08
2023-03-25T11:24:21.698Z,19.32
2023-03-25T11:28:37.779Z,19.50
2023-03-25T11:32:42.266Z,19.58
2023-03-25T11:36:53.113Z,19.63
2023-03-25T11:40:58.716Z,19.69
2023-03-25T11:45:05.120Z,19.74
2023-03-25T11:49:13.002Z,19.78
2023-03-25T11:53:18.454Z,19.84
2023-03-25T11:57:26.101Z,19.98
2023-03-25T12:01:39.475Z,20.19
2023-03-25T12:05:43.581Z,20.27
2023-03-25T12:09:56.558Z,20.28
2023-03-25T12:14:17.368Z,20.18
2023-03-25T12:18:40.776Z,20.05
2023-03-25T12:22:56.757Z,19.94
2023-03-25T12:27:15.472Z,19.84
2023-03-25T12:31:34.084Z,19.86
2023-03-25T12:35:44.903Z,20.01
2023-03-25T12:40:04.112Z,20.06
2023-03-25T12:44:11.703Z,20.00
2023-03-25T12:48:29.738Z,19.82
2023-03-25T12:52:44.721Z,19.59
2023-03-25T12:56:59.195Z,19.37
2023-03-25T13:01:08.512Z,19.14
2023-03-25T13:05:20.473Z,18.90
2023-03-25T13:09:29.428Z,18.68
2023-03-25T13:13:35.702Z,18.48
2023-03-25T13:17:44.783Z,18.34
2023-03-25T13:21:52.949Z,18.24
2023-03-25T13:26:02.411Z,18.23
2023-03-25T13:30:10.649Z,18.30
2023-03-25T13:34:25.755Z,18.45
2023-03-25T13:38:34.700Z,18.60
2023-03-25T13:42:45.244Z,18.61
2023-03-25T13:46:51.588Z,18.55
2023-03-25T13:50:54.840Z,18.44
2023-03-25T13:55:01.060Z,18.32
2023-03-25T13:59:33.636Z,18.22
2023-03-25T14:04:10.756Z,18.04
2023-03-25T14:08:59.059Z,17.48
2023-03-25T14:13:05.746Z,17.26
2023-03-25T14:17:12.301Z,17.22
2023-03-25T14:21:31.521Z,17.17
2023-03-25T14:25:39.384Z,17.16
2023-03-25T14:29:44.692Z,17.13
2023-03-25T14:34:26.026Z,17.21
2023-03-25T14:38:58.438Z,17.31
2023-03-25T14:43:02.176Z,17.28
2023-03-25T14:47:32.335Z,17.26
2023-03-25T14:51:46.905Z,17.23
2023-03-25T14:55:50.250Z,17.24
2023-03-25T14:59:58.159Z,17.28
2023-03-25T15:04:15.208Z,17.28
2023-03-25T15:08:28.163Z,17.31
2023-03-25T15:12:31.824Z,17.35
2023-03-25T15:16:37.327Z,17.46
2023-03-25T15:20:41.446Z,17.53
2023-03-25T15:24:53.946Z,17.64
2023-03-25T15:29:24.040Z,17.53
2023-03-25T15:33:46.426Z,17.36
2023-03-25T15:38:14.354Z,17.24
2023-03-25T15:42:53.274Z,17.19
2023-03-25T15:47:08.120Z,17.19
2023-03-25T15:51:34.362Z,17.24
2023-03-25T15:55:41.196Z,17.20
2023-03-25T15:59:52.807Z,17.09
2023-03-25T16:04:02.462Z,16.88
2023-03-25T16:08:11.065Z,16.55
2023-03-25T16:12:20.412Z,16.12
2023-03-25T16:16:25.112Z,15.40
2023-03-25T16:20:32.061Z,14.59
2023-03-25T16:24:35.681Z,13.78
2023-03-25T16:28:43.488Z,13.16
2023-03-25T16:32:48.071Z,12.70
2023-03-25T16:36:53.656Z,12.46
2023-03-25T16:41:02.509Z,12.37
2023-03-25T16:45:09.776Z,12.33
2023-03-25T16:49:24.536Z,12.28
2023-03-25T16:53:28.504Z,12.22
2023-03-25T16:57:36.442Z,12.16
2023-03-25T17:01:42.907Z,12.07
2023-03-25T17:06:01.486Z,11.94
2023-03-25T17:10:06.355Z,11.79
2023-03-25T17:14:18.661Z,11.67
2023-03-25T17:18:26.556Z,11.55
2023-03-25T17:22:36.617Z,11.47
2023-03-25T17:26:58.473Z,11.43
2023-03-25T17:31:02.607Z,11.39
2023-03-25T17:35:07.329Z,11.35
2023-03-25T17:39:20.116Z,11.38
2023-03-25T17:43:23.455Z,11.28
2023-03-25T17:47:26.668Z,11.08
2023-03-25T17:51:32.237Z,10.83
2023-03-25T17:55:37.249Z,10.68
2023-03-25T17:59:40.597Z,10.58
2023-03-25T18:03:43.926Z,10.49
2023-03-25T18:07:47.320Z,10.43
2023-03-25T18:11:54.600Z,10.38
2023-03-25T18:15:57.729Z,10.34
2023-03-25T18:20:01.160Z,10.32
2023-03-25T18:24:04.384Z,10.33
2023-03-25T18:28:08.973Z,10.33
2023-03-25T18:32:11.920Z,10.28
2023-03-25T18:36:15.822Z,10.14
2023-03-25T18:40:23.551Z,10.07
2023-03-25T18:44:31.033Z,9.98
2023-03-25T18:48:34.683Z,9.90
2023-03-25T18:52:38.472Z,9.83
2023-03-25T18:56:47.909Z,9.72
2023-03-25T19:00:54.984Z,9.63
2023-03-25T19:05:01.091Z,9.50
2023-03-25T19:09:05.437Z,9.45
2023-03-25T19:13:08.642Z,9.47
2023-03-25T19:17:13.347Z,9.53
2023-03-25T19:21:18.689Z,9.57
2023-03-25T19:25:22.014Z,9.66
2023-03-25T19:29:24.984Z,9.67
2023-03-25T19:33:31.768Z,9.70
2023-03-25T19:37:36.825Z,9.72
2023-03-25T19:41:43.204Z,9.78
2023-03-25T19:45:46.303Z,9.71
2023-03-25T19:49:52.815Z,9.65
2023-03-25T19:53:56.092Z,9.57
2023-03-25T19:57:59.576Z,9.53
2023-03-25T20:02:02.817Z,9.44
2023-03-25T20:06:09.824Z,9.41
2023-03-25T20:10:19.913Z,9.31
2023-03-25T20:14:23.864Z,9.22
2023-03-25T20:18:26.900Z,9.14
2023-03-25T20:22:33.790Z,9.11
2023-03-25T20:26:36.945Z,9.07
2023-03-25T20:30:40.802Z,9.05
2023-03-25T20:34:43.855Z,9.04
2023-03-25T20:38:57.294Z,9.01
2023-03-25T20:43:01.533Z,8.98
2023-03-25T20:47:06.561Z,8.96
2023-03-25T20:51:11.818Z,8.92
2023-03-25T20:55:16.637Z,8.86
2023-03-25T20:59:20.424Z,8.85
2023-03-25T21:03:24.288Z,8.85
2023-03-25T21:07:29.316Z,8.87
2023-03-25T21:11:33.973Z,8.94
2023-03-25T21:15:39.715Z,9.06
2023-03-25T21:19:46.685Z,9.18
2023-03-25T21:23:49.834Z,9.30
2023-03-25T21:27:54.520Z,9.47
2023-03-25T21:31:57.838Z,9.59
2023-03-25T21:36:02.189Z,9.75
2023-03-25T21:40:08.480Z,9.84
2023-03-25T21:44:16.552Z,9.96
2023-03-25T21:48:21.574Z,10.02
2023-03-25T21:52:26.661Z,10.12
2023-03-25T21:56:31.481Z,10.18
2023-03-25T22:00:36.321Z,10.22
2023-03-25T22:04:39.287Z,10.22
2023-03-25T22:08:43.422Z,10.27
2023-03-25T22:12:46.700Z,10.30
2023-03-25T22:16:51.616Z,10.35
2023-03-25T22:20:55.802Z,10.40
2023-03-25T22:24:59.329Z,10.44
2023-03-25T22:29:04.892Z,10.50
2023-03-25T22:33:09.657Z,10.52
2023-03-25T22:37:12.554Z,10.59
2023-03-25T22:41:17.815Z,10.58
2023-03-25T22:45:20.918Z,10.59
2023-03-25T22:49:25.646Z,10.64
2023-03-25T22:53:29.066Z,10.67
2023-03-25T22:57:32.240Z,10.70
2023-03-25T23:01:36.101Z,10.72
2023-03-25T23:05:41.065Z,10.75
2023-03-25T23:09:45.192Z,10.81
2023-03-25T23:13:51.725Z,10.84
2023-03-25T23:17:54.769Z,10.88
2023-03-25T23:21:59.958Z,10.92
2023-03-25T23:26:05.185Z,11.05
2023-03-25T23:30:10.232Z,11.12
2023-03-25T23:34:16.042Z,11.18
2023-03-25T23:38:22.264Z,11.23
2023-03-25T23:42:35.897Z,11.29
2023-03-25T23:46:43.698Z,11.25
2023-03-25T23:50:47.885Z,11.23
2023-03-25T23:54:52.540Z,11.21
2023-03-25T23:58:55.594Z,11.22
